createdAt,value
2019-02-17T00:03:11.392Z,6.00
2019-02-17T00:08:15.502Z,5.80
2019-02-17T00:13:19.430Z,5.80
2019-02-17T00:18:23.341Z,5.70
2019-02-17T00:23:27.290Z,5.60
2019-02-17T00:28:31.215Z,5.50
2019-02-17T00:33:35.226Z,5.40
2019-02-17T00:38:38.806Z,5.30
2019-02-17T00:43:42.388Z,5.40
2019-02-17T00:48:46.337Z,5.20
2019-02-17T00:53:49.930Z,5.10
2019-02-17T00:58:53.513Z,5.00
2019-02-17T01:03:57.105Z,5.00
2019-02-17T01:09:01.029Z,4.80
2019-02-17T01:14:04.791Z,4.50
2019-02-17T01:19:08.379Z,4.30
2019-02-17T01:24:11.965Z,4.40
2019-02-17T01:29:20.420Z,4.40
2019-02-17T01:34:21.177Z,4.40
2019-02-17T01:39:24.767Z,4.20
2019-02-17T01:44:28.370Z,4.20
2019-02-17T01:49:31.952Z,4.40
2019-02-17T01:54:35.537Z,4.40
2019-02-17T01:59:39.126Z,4.70
2019-02-17T02:04:42.754Z,4.70
2019-02-17T02:09:46.338Z,5.00
2019-02-17T02:14:50.186Z,5.00
2019-02-17T02:19:54.158Z,5.00
2019-02-17T02:24:58.202Z,5.00
2019-02-17T02:30:02.247Z,4.70
2019-02-17T02:35:06.981Z,4.60
2019-02-17T02:40:10.702Z,4.60
2019-02-17T02:45:14.362Z,4.50
2019-02-17T02:50:17.954Z,4.60
2019-02-17T02:55:21.530Z,4.40
2019-02-17T03:00:25.186Z,5.10
2019-02-17T03:05:28.833Z,5.20
2019-02-17T03:10:32.430Z,5.40
2019-02-17T03:15:36.005Z,5.80
2019-02-17T03:20:39.873Z,5.50
2019-02-17T03:25:45.372Z,5.00
2019-02-17T03:30:49.518Z,4.80
2019-02-17T03:36:12.427Z,4.70
2019-02-17T03:41:16.005Z,4.70
2019-02-17T03:46:19.599Z,4.50
2019-02-17T03:51:23.164Z,4.20
2019-02-17T03:56:26.753Z,4.10
2019-02-17T04:01:30.361Z,4.10
2019-02-17T04:06:34.009Z,4.00
2019-02-17T04:11:37.585Z,4.00
2019-02-17T04:16:41.178Z,3.90
2019-02-17T04:21:44.753Z,3.80
2019-02-17T04:26:48.344Z,3.80
2019-02-17T04:31:51.913Z,3.60
2019-02-17T04:36:55.509Z,3.70
2019-02-17T04:41:59.082Z,3.70
2019-02-17T04:47:02.742Z,3.70
2019-02-17T04:52:06.699Z,3.60
2019-02-17T04:57:10.277Z,3.60
2019-02-17T05:02:13.869Z,3.50
2019-02-17T05:07:17.446Z,3.60
2019-02-17T05:12:21.125Z,3.50
2019-02-17T05:17:24.741Z,3.60
2019-02-17T05:22:28.321Z,3.50
2019-02-17T05:27:32.257Z,3.50
2019-02-17T05:32:35.839Z,3.40
2019-02-17T05:37:39.410Z,3.30
2019-02-17T05:42:43.018Z,3.30
2019-02-17T05:47:46.604Z,3.30
2019-02-17T05:52:50.254Z,3.30
2019-02-17T05:57:53.839Z,3.30
2019-02-17T06:02:57.421Z,3.20
2019-02-17T06:08:01.321Z,3.20
2019-02-17T06:13:04.893Z,3.10
2019-02-17T06:18:09.003Z,3.00
2019-02-17T06:23:12.584Z,3.00
2019-02-17T06:28:16.228Z,2.90
2019-02-17T06:33:20.157Z,2.90
2019-02-17T06:38:23.812Z,3.00
2019-02-17T06:43:27.382Z,2.90
2019-02-17T06:48:30.967Z,2.90
2019-02-17T06:53:34.549Z,3.00
2019-02-17T06:58:38.147Z,3.10
2019-02-17T07:03:42.081Z,3.30
2019-02-17T07:08:45.887Z,3.50
2019-02-17T07:13:49.468Z,3.30
2019-02-17T07:18:53.128Z,3.10
2019-02-17T07:23:56.773Z,3.10
2019-02-17T07:29:00.350Z,3.20
2019-02-17T07:34:03.938Z,3.20
2019-02-17T07:39:07.588Z,3.30
2019-02-17T07:44:11.165Z,3.40
2019-02-17T07:49:14.820Z,3.30
2019-02-17T07:54:18.406Z,3.40
2019-02-17T07:59:21.988Z,3.60
2019-02-17T08:04:25.989Z,3.90
2019-02-17T08:09:29.573Z,4.30
2019-02-17T08:14:33.532Z,5.00
2019-02-17T08:19:37.113Z,5.90
2019-02-17T08:24:40.688Z,6.70
2019-02-17T08:29:44.367Z,7.50
2019-02-17T08:34:48.305Z,8.50
2019-02-17T08:39:51.887Z,9.50
2019-02-17T08:44:55.467Z,10.40
2019-02-17T08:49:59.069Z,11.10
2019-02-17T08:55:02.798Z,11.50
2019-02-17T09:00:13.922Z,11.70
2019-02-17T09:05:17.515Z,12.20
2019-02-17T09:10:21.536Z,12.80
2019-02-17T09:15:25.137Z,13.40
2019-02-17T09:20:29.084Z,14.20
2019-02-17T09:25:32.688Z,14.10
2019-02-17T09:30:36.637Z,14.30
2019-02-17T09:35:40.221Z,14.90
2019-02-17T09:40:43.814Z,15.40
2019-02-17T09:45:47.398Z,16.30
2019-02-17T09:50:51.056Z,16.80
2019-02-17T09:55:55.205Z,17.50
2019-02-17T10:00:58.816Z,18.40
2019-02-17T10:06:02.483Z,19.20
2019-02-17T10:11:06.172Z,20.10
2019-02-17T10:16:09.757Z,20.20
2019-02-17T10:21:13.344Z,21.40
2019-02-17T10:26:16.936Z,21.30
2019-02-17T10:31:20.596Z,22.80
2019-02-17T10:36:24.188Z,23.30
2019-02-17T10:41:27.904Z,23.80
2019-02-17T10:46:31.698Z,24.40
2019-02-17T10:51:35.588Z,26.10
2019-02-17T10:56:39.169Z,26.70
2019-02-17T11:01:42.867Z,27.10
2019-02-17T11:06:46.797Z,27.10
2019-02-17T11:11:50.354Z,26.60
2019-02-17T11:16:53.938Z,26.40
2019-02-17T11:21:58.068Z,25.50
2019-02-17T11:27:02.092Z,25.50
2019-02-17T11:32:06.040Z,25.30
2019-02-17T11:37:09.876Z,25.90
2019-02-17T11:42:13.750Z,25.20
2019-02-17T11:47:17.448Z,25.70
2019-02-17T11:52:21.413Z,25.70
2019-02-17T11:57:25.178Z,26.00
2019-02-17T12:02:28.845Z,26.10
2019-02-17T12:07:32.449Z,27.10
2019-02-17T12:12:36.433Z,27.40
2019-02-17T12:17:40.012Z,28.60
2019-02-17T12:22:43.876Z,28.50
2019-02-17T12:27:49.451Z,29.30
2019-02-17T12:32:53.175Z,29.70
2019-02-17T12:37:56.764Z,30.60
2019-02-17T12:43:00.698Z,30.40
2019-02-17T12:48:04.429Z,31.80
2019-02-17T12:53:08.019Z,33.00
2019-02-17T12:58:11.610Z,32.40
2019-02-17T13:03:15.568Z,32.70
2019-02-17T13:08:19.157Z,33.10
2019-02-17T13:13:22.736Z,33.00
2019-02-17T13:18:26.673Z,33.60
2019-02-17T13:23:30.273Z,33.70
2019-02-17T13:28:33.887Z,33.60
2019-02-17T13:33:39.381Z,33.80
2019-02-17T13:38:43.130Z,33.20
2019-02-17T13:43:46.997Z,32.60
2019-02-17T13:48:50.583Z,33.40
2019-02-17T13:53:54.176Z,33.10
2019-02-17T13:58:57.856Z,32.30
2019-02-17T14:04:01.833Z,32.30
2019-02-17T14:09:06.168Z,31.60
2019-02-17T14:14:09.756Z,31.90
2019-02-17T14:19:13.357Z,31.60
2019-02-17T14:24:16.998Z,31.20
2019-02-17T14:29:20.594Z,31.00
2019-02-17T14:34:24.163Z,30.10
2019-02-17T14:39:28.138Z,29.60
2019-02-17T14:44:31.788Z,30.30
2019-02-17T14:49:35.372Z,30.10
2019-02-17T14:54:38.957Z,29.10
2019-02-17T14:59:42.534Z,29.10
2019-02-17T15:04:46.537Z,28.70
2019-02-17T15:09:50.116Z,28.30
2019-02-17T15:14:54.103Z,27.60
2019-02-17T15:19:57.700Z,27.60
2019-02-17T15:25:01.320Z,27.40
2019-02-17T15:30:13.355Z,27.10
2019-02-17T15:35:16.936Z,26.40
2019-02-17T15:40:20.588Z,26.10
2019-02-17T15:45:24.641Z,25.40
2019-02-17T15:50:28.224Z,24.50
2019-02-17T15:55:31.951Z,23.70
2019-02-17T16:00:35.524Z,23.10
2019-02-17T16:05:39.122Z,20.90
2019-02-17T16:10:42.707Z,19.60
2019-02-17T16:15:46.297Z,18.60
2019-02-17T16:20:50.305Z,17.40
2019-02-17T16:25:53.900Z,16.90
2019-02-17T16:30:57.496Z,15.90
2019-02-17T16:36:01.073Z,15.20
2019-02-17T16:41:05.200Z,15.00
2019-02-17T16:46:08.779Z,14.20
2019-02-17T16:51:12.352Z,13.70
2019-02-17T16:56:15.942Z,13.50
2019-02-17T17:01:19.970Z,13.40
2019-02-17T17:06:23.670Z,13.10
2019-02-17T17:11:27.258Z,13.10
2019-02-17T17:16:30.847Z,12.70
2019-02-17T17:21:34.770Z,12.40
2019-02-17T17:26:38.414Z,12.10
2019-02-17T17:31:42.077Z,12.00
2019-02-17T17:36:46.039Z,11.80
2019-02-17T17:41:49.619Z,11.80
2019-02-17T17:46:53.211Z,11.70
2019-02-17T17:51:57.144Z,11.60
2019-02-17T17:57:01.021Z,11.40
2019-02-17T18:02:04.681Z,11.40
2019-02-17T18:07:08.266Z,11.10
2019-02-17T18:12:11.862Z,10.80
2019-02-17T18:17:15.449Z,10.70
2019-02-17T18:22:19.168Z,10.60
2019-02-17T18:27:22.781Z,10.30
2019-02-17T18:32:26.728Z,10.20
2019-02-17T18:37:30.393Z,9.70
2019-02-17T18:42:33.978Z,9.50
2019-02-17T18:47:37.562Z,9.50
2019-02-17T18:52:41.210Z,9.50
2019-02-17T18:57:50.332Z,9.40
2019-02-17T19:02:50.053Z,9.30
2019-02-17T19:07:53.632Z,9.20
2019-02-17T19:12:57.223Z,9.30
2019-02-17T19:18:00.813Z,9.20
2019-02-17T19:23:04.793Z,9.10
2019-02-17T19:28:08.377Z,9.20
2019-02-17T19:33:12.352Z,9.20
2019-02-17T19:38:15.919Z,9.20
2019-02-17T19:43:19.505Z,9.20
2019-02-17T19:48:23.393Z,9.10
2019-02-17T19:53:27.053Z,9.10
2019-02-17T19:58:30.712Z,9.00
2019-02-17T20:03:36.318Z,8.60
2019-02-17T20:08:39.897Z,8.40
2019-02-17T20:13:45.937Z,8.20
2019-02-17T20:18:49.606Z,8.20
2019-02-17T20:23:53.221Z,8.30
2019-02-17T20:28:57.391Z,8.50
2019-02-17T20:34:01.347Z,7.90
2019-02-17T20:39:06.132Z,7.50
2019-02-17T20:44:10.035Z,7.60
2019-02-17T20:49:13.648Z,7.80
2019-02-17T20:54:17.236Z,7.50
2019-02-17T20:59:20.813Z,7.10
2019-02-17T21:04:24.455Z,7.10
2019-02-17T21:09:28.305Z,7.20
2019-02-17T21:14:31.879Z,7.00
2019-02-17T21:19:35.808Z,6.90
2019-02-17T21:24:39.549Z,6.70
2019-02-17T21:29:43.129Z,6.60
2019-02-17T21:34:47.072Z,6.60
2019-02-17T21:39:50.665Z,6.70
2019-02-17T21:44:54.244Z,6.90
2019-02-17T21:49:57.816Z,7.20
2019-02-17T21:55:01.792Z,7.00
2019-02-17T22:00:09.434Z,6.70
2019-02-17T22:05:13.156Z,6.60
2019-02-17T22:10:20.358Z,6.40
2019-02-17T22:15:24.770Z,6.10
2019-02-17T22:20:28.344Z,6.20
2019-02-17T22:25:31.924Z,6.20
2019-02-17T22:30:35.821Z,6.00
2019-02-17T22:35:39.474Z,6.00
2019-02-17T22:40:43.412Z,5.90
2019-02-17T22:45:47.072Z,6.10
2019-02-17T22:50:50.645Z,6.40
2019-02-17T22:55:54.493Z,6.40
2019-02-17T23:01:00.661Z,6.50
2019-02-17T23:06:04.578Z,6.30
2019-02-17T23:11:08.585Z,6.20
2019-02-17T23:16:12.162Z,6.10
2019-02-17T23:21:15.796Z,6.00
2019-02-17T23:26:19.387Z,5.90
2019-02-17T23:31:23.042Z,5.90
2019-02-17T23:36:26.634Z,5.80
2019-02-17T23:41:30.220Z,5.70
2019-02-17T23:46:33.823Z,5.40
2019-02-17T23:51:37.481Z,5.50
2019-02-17T23:56:41.117Z,5.60
